Pilot No. 4 — WDA5463 — position and weather

sailwx.info

Track history (hours):
 
Tides and Currents Weather Stations Pressure Air Temp Water Temp Dewpoint Dewpoint Depression Visibility Wind Speed Wind Dir Waves Ship Positions

Pilot No. 4

Owner: P E P Inc, FORT LAUDERDALE, FL. More information available from US FCC via Universal Licensing System and Coast Guard Vessel Documentation Center.

Last reported at 2016-Jun-25 10:13 UTC. Time now 2016-Jun-25 10:39 UTC.
Position N 26°06' W 080°07'.

MMSI: 495270931.

Date/timePositionNaut miles runAvg speedWind from/ knotsBaromVisibWave heightAir tempDewpointWater temp
2016-Jun-25 10:13N 26°06' W 080°07'2 2.3
2016-Jun-25 09:33N 26°06' W 080°06'1 1.4
2016-Jun-25 08:33N 26°05' W 080°07'1 0.9
2016-Jun-25 07:33N 26°04' W 080°07'1 0.3
2016-Jun-25 04:33N 26°05' W 080°07'1 0.5
2016-Jun-25 03:34N 26°06' W 080°06'1 0.4
2016-Jun-25 01:33N 26°06' W 080°07'0 0.1
2016-Jun-25 00:33N 26°06' W 080°07'0 0.2
2016-Jun-24 23:05N 26°06' W 080°07'1 1.8
2016-Jun-24 22:33N 26°06' W 080°06'1 0.5
2016-Jun-24 21:33N 26°05' W 080°07'1 1.1
2016-Jun-24 20:33N 26°04' W 080°07'2 2.0
2016-Jun-24 19:33N 26°06' W 080°05'2 0.6
2016-Jun-24 16:33N 26°06' W 080°07'1 1.3
2016-Jun-24 15:33N 26°05' W 080°07'1 0.8
2016-Jun-24 14:33N 26°04' W 080°07'5 1.2
2016-Jun-24 10:33N 26°07' W 080°02'4 4.4
2016-Jun-24 09:33N 26°05' W 080°07'0 0.0
2016-Jun-24 08:33N 26°05' W 080°07'1 1.0
2016-Jun-24 07:33N 26°04' W 080°07'2 0.4
2016-Jun-24 03:08N 26°06' W 080°07'1 2.2
2016-Jun-24 02:33N 26°06' W 080°06'1 0.5
2016-Jun-24 01:33N 26°06' W 080°05'2 1.8
2016-Jun-24 00:33N 26°05' W 080°07'1 0.7
2016-Jun-23 23:33N 26°06' W 080°06'1 1.1
2016-Jun-23 22:33N 26°05' W 080°07'2 0.4
2016-Jun-23 18:33N 26°06' W 080°06'1 1.3
2016-Jun-23 17:33N 26°05' W 080°07'0 0.2
2016-Jun-23 16:33N 26°05' W 080°07'1 0.6
2016-Jun-23 15:33N 26°06' W 080°07'0 0.0
2016-Jun-23 03:33N 26°06' W 080°07'1 0.8
2016-Jun-23 02:33N 26°05' W 080°07'3 3.2
2016-Jun-23 01:33N 26°06' W 080°04'1 1.3
2016-Jun-23 00:34N 26°05' W 080°04'3 2.6
2016-Jun-22 23:33N 26°06' W 080°07'0 0.4
2016-Jun-22 22:33N 26°05' W 080°07'1 0.6
2016-Jun-22 21:33N 26°06' W 080°06'1 0.7
2016-Jun-22 20:13N 26°06' W 080°07'2 3.0
2016-Jun-22 19:33N 26°04' W 080°07'2 0.2
2016-Jun-22 11:14N 26°06' W 080°07'1 1.1
2016-Jun-22 10:33N 26°05' W 080°07'1 1.5
2016-Jun-22 09:33N 26°04' W 080°07'2 1.6
2016-Jun-22 08:08N 26°06' W 080°07'1 2.2
2016-Jun-22 07:33N 26°05' W 080°07'1 0.2
2016-Jun-22 01:31N 26°06' W 080°07'2 2.4
2016-Jun-22 00:33N 26°06' W 080°05'2 1.9
2016-Jun-21 23:20N 26°06' W 080°07'1 1.0
2016-Jun-21 22:33N 26°06' W 080°07'2 1.6
2016-Jun-21 21:34N 26°05' W 080°05'2 1.9
2016-Jun-21 20:33N 26°06' W 080°07'1 0.7
2016-Jun-21 19:33N 26°06' W 080°07'1 0.7
2016-Jun-21 18:33N 26°05' W 080°07'1 0.7
2016-Jun-21 17:33N 26°06' W 080°07'0 0.0
2016-Jun-21 16:33N 26°06' W 080°07'0 0.0
2016-Jun-21 15:33N 26°06' W 080°07'0 0.0
2016-Jun-21 14:33N 26°06' W 080°07'0 0.0
2016-Jun-21 13:33N 26°06' W 080°07'0 0.0
2016-Jun-21 12:33N 26°06' W 080°07'1 0.6
2016-Jun-21 11:33N 26°06' W 080°07'1 0.5
2016-Jun-21 10:28N 26°06' W 080°07'1 0.6
2016-Jun-21 09:33N 26°06' W 080°07'2 1.5
2016-Jun-21 08:33N 26°04' W 080°07'2 0.2
2016-Jun-20 19:24N 26°06' W 080°07'1 0.8
2016-Jun-20 18:33N 26°06' W 080°07'0 0.4
2016-Jun-20 17:33N 26°05' W 080°07'1 1.1
2016-Jun-20 16:33N 26°06' W 080°07'0 0.0
2016-Jun-20 15:33N 26°06' W 080°07'0 0.0
2016-Jun-20 14:33N 26°06' W 080°07'4 3.9
2016-Jun-20 13:33N 26°05' W 080°03'3 2.6
2016-Jun-20 12:33N 26°08' W 080°05'2 2.2
2016-Jun-20 11:33N 26°05' W 080°04'3 1.4
2016-Jun-20 09:34N 26°06' W 080°07'1 1.3
2016-Jun-20 08:33N 26°04' W 080°07'1 1.0
2016-Jun-20 07:34N 26°05' W 080°07'1 0.3
2016-Jun-20 03:33N 26°06' W 080°05'2 1.4
2016-Jun-20 02:20N 26°06' W 080°07'1 0.8
2016-Jun-20 01:33N 26°06' W 080°07'1 0.6
2016-Jun-19 23:33N 26°06' W 080°06'1 1.2
2016-Jun-19 22:33N 26°05' W 080°07'0 0.5
2016-Jun-19 21:33N 26°04' W 080°07'1 1.0
2016-Jun-19 20:33N 26°05' W 080°07'0 0.5
2016-Jun-19 19:33N 26°06' W 080°07'0 0.3
2016-Jun-19 18:33N 26°06' W 080°07'1 0.1
2016-Jun-19 09:33N 26°06' W 080°07'0 0.2
2016-Jun-19 08:33N 26°05' W 080°07'1 1.5
2016-Jun-19 07:33N 26°06' W 080°06'1 0.2
2016-Jun-19 01:33N 26°06' W 080°07'1 1.4
2016-Jun-19 00:33N 26°06' W 080°06'1 1.4
2016-Jun-18 23:33N 26°06' W 080°07'2 1.6
2016-Jun-18 22:33N 26°06' W 080°05'2 1.9
2016-Jun-18 21:33N 26°04' W 080°07'1 1.2
2016-Jun-18 20:33N 26°06' W 080°07'2 0.2
2016-Jun-18 10:33N 26°06' W 080°05'1 1.1
2016-Jun-18 09:33N 26°05' W 080°04'2 1.9
2016-Jun-18 08:33N 26°06' W 080°06'1 0.8
2016-Jun-18 07:33N 26°05' W 080°07'1 0.5
2016-Jun-18 06:05N 26°06' W 080°07'2 3.1
2016-Jun-18 05:33N 26°06' W 080°06'1 1.2
2016-Jun-18 04:33N 26°06' W 080°07'0 0.4
2016-Jun-18 03:33N 26°05' W 080°07'0 0.2
2016-Jun-18 01:33N 26°06' W 080°07'0 0.1
2016-Jun-17 22:33N 26°06' W 080°07'0 0.1
2016-Jun-17 20:33N 26°05' W 080°07'4 4.2
2016-Jun-17 19:33N 26°05' W 080°03'5 4.6
2016-Jun-17 18:33N 26°06' W 080°07'2 2.4
2016-Jun-17 17:33N 26°06' W 080°05'2 0.3
2016-Jun-17 10:33N 26°05' W 080°07'4 4.1
2016-Jun-17 09:33N 26°05' W 080°02'1 1.2
2016-Jun-17 08:33N 26°06' W 080°04'1 1.1
2016-Jun-17 07:33N 26°05' W 080°05'2 2.2
2016-Jun-17 06:33N 26°04' W 080°07'1 1.2
2016-Jun-17 05:33N 26°06' W 080°07'0 0.1
2016-Jun-17 04:33N 26°05' W 080°07'0 0.3
2016-Jun-17 03:33N 26°06' W 080°07'1 0.9
2016-Jun-17 02:33N 26°06' W 080°06'1 1.1
2016-Jun-17 01:33N 26°06' W 080°07'1 0.3
2016-Jun-16 23:30N 26°06' W 080°07'1 1.4
2016-Jun-16 22:33N 26°05' W 080°07'3 3.4
2016-Jun-16 21:33N 26°06' W 080°03'2 1.9
2016-Jun-16 20:33N 26°06' W 080°05'2 0.2
2016-Jun-16 11:33N 26°06' W 080°07'0 0.4
2016-Jun-16 10:34N 26°06' W 080°07'3 3.0
2016-Jun-16 09:34N 26°06' W 080°04'3 2.8
2016-Jun-16 08:33N 26°05' W 080°07'5 5.3
2016-Jun-16 07:33N 26°07' W 080°01'5 1.6
2016-Jun-16 04:08N 26°06' W 080°07'1 1.6
2016-Jun-16 03:33N 26°05' W 080°07'1 0.1
2016-Jun-15 17:33N 26°06' W 080°06'1 1.3
2016-Jun-15 16:33N 26°06' W 080°07'0 0.1
2016-Jun-15 15:33N 26°06' W 080°07'1 1.3
2016-Jun-15 14:33N 26°06' W 080°06'1 1.1
2016-Jun-15 13:33N 26°06' W 080°07'1 1.5
2016-Jun-15 12:33N 26°04' W 080°07'  
Track history (hours):
 
Tides and Currents Weather Stations Pressure Air Temp Water Temp Dewpoint Dewpoint Depression Visibility Wind Speed Wind Dir Waves Ship Positions

Pilot No. 4

Owner: P E P Inc, FORT LAUDERDALE, FL. More information available from US FCC via Universal Licensing System and Coast Guard Vessel Documentation Center.

Last reported at 2016-Jun-25 10:13 UTC. Time now 2016-Jun-25 10:39 UTC.
Position N 26°06' W 080°07'.

MMSI: 495270931.

Date/timePositionNaut miles runAvg speedWind from/ knotsBaromVisibWave heightAir tempDewpointWater temp
2016-Jun-25 10:13N 26°06' W 080°07'2 2.3
2016-Jun-25 09:33N 26°06' W 080°06'1 1.4
2016-Jun-25 08:33N 26°05' W 080°07'1 0.9
2016-Jun-25 07:33N 26°04' W 080°07'1 0.3
2016-Jun-25 04:33N 26°05' W 080°07'1 0.5
2016-Jun-25 03:34N 26°06' W 080°06'1 0.4
2016-Jun-25 01:33N 26°06' W 080°07'0 0.1
2016-Jun-25 00:33N 26°06' W 080°07'0 0.2
2016-Jun-24 23:05N 26°06' W 080°07'1 1.8
2016-Jun-24 22:33N 26°06' W 080°06'1 0.5
2016-Jun-24 21:33N 26°05' W 080°07'1 1.1
2016-Jun-24 20:33N 26°04' W 080°07'2 2.0
2016-Jun-24 19:33N 26°06' W 080°05'2 0.6
2016-Jun-24 16:33N 26°06' W 080°07'1 1.3
2016-Jun-24 15:33N 26°05' W 080°07'1 0.8
2016-Jun-24 14:33N 26°04' W 080°07'5 1.2
2016-Jun-24 10:33N 26°07' W 080°02'4 4.4
2016-Jun-24 09:33N 26°05' W 080°07'0 0.0
2016-Jun-24 08:33N 26°05' W 080°07'1 1.0
2016-Jun-24 07:33N 26°04' W 080°07'2 0.4
2016-Jun-24 03:08N 26°06' W 080°07'1 2.2
2016-Jun-24 02:33N 26°06' W 080°06'1 0.5
2016-Jun-24 01:33N 26°06' W 080°05'2 1.8
2016-Jun-24 00:33N 26°05' W 080°07'1 0.7
2016-Jun-23 23:33N 26°06' W 080°06'1 1.1
2016-Jun-23 22:33N 26°05' W 080°07'2 0.4
2016-Jun-23 18:33N 26°06' W 080°06'1 1.3
2016-Jun-23 17:33N 26°05' W 080°07'0 0.2
2016-Jun-23 16:33N 26°05' W 080°07'1 0.6
2016-Jun-23 15:33N 26°06' W 080°07'0 0.0
2016-Jun-23 03:33N 26°06' W 080°07'1 0.8
2016-Jun-23 02:33N 26°05' W 080°07'3 3.2
2016-Jun-23 01:33N 26°06' W 080°04'1 1.3
2016-Jun-23 00:34N 26°05' W 080°04'3 2.6
2016-Jun-22 23:33N 26°06' W 080°07'0 0.4
2016-Jun-22 22:33N 26°05' W 080°07'1 0.6
2016-Jun-22 21:33N 26°06' W 080°06'1 0.7
2016-Jun-22 20:13N 26°06' W 080°07'2 3.0
2016-Jun-22 19:33N 26°04' W 080°07'2 0.2
2016-Jun-22 11:14N 26°06' W 080°07'1 1.1
2016-Jun-22 10:33N 26°05' W 080°07'1 1.5
2016-Jun-22 09:33N 26°04' W 080°07'2 1.6
2016-Jun-22 08:08N 26°06' W 080°07'1 2.2
2016-Jun-22 07:33N 26°05' W 080°07'1 0.2
2016-Jun-22 01:31N 26°06' W 080°07'2 2.4
2016-Jun-22 00:33N 26°06' W 080°05'2 1.9
2016-Jun-21 23:20N 26°06' W 080°07'1 1.0
2016-Jun-21 22:33N 26°06' W 080°07'2 1.6
2016-Jun-21 21:34N 26°05' W 080°05'2 1.9
2016-Jun-21 20:33N 26°06' W 080°07'1 0.7
2016-Jun-21 19:33N 26°06' W 080°07'1 0.7
2016-Jun-21 18:33N 26°05' W 080°07'1 0.7
2016-Jun-21 17:33N 26°06' W 080°07'0 0.0
2016-Jun-21 16:33N 26°06' W 080°07'0 0.0
2016-Jun-21 15:33N 26°06' W 080°07'0 0.0
2016-Jun-21 14:33N 26°06' W 080°07'0 0.0
2016-Jun-21 13:33N 26°06' W 080°07'0 0.0
2016-Jun-21 12:33N 26°06' W 080°07'1 0.6
2016-Jun-21 11:33N 26°06' W 080°07'1 0.5
2016-Jun-21 10:28N 26°06' W 080°07'1 0.6
2016-Jun-21 09:33N 26°06' W 080°07'2 1.5
2016-Jun-21 08:33N 26°04' W 080°07'2 0.2
2016-Jun-20 19:24N 26°06' W 080°07'1 0.8
2016-Jun-20 18:33N 26°06' W 080°07'0 0.4
2016-Jun-20 17:33N 26°05' W 080°07'1 1.1
2016-Jun-20 16:33N 26°06' W 080°07'0 0.0
2016-Jun-20 15:33N 26°06' W 080°07'0 0.0
2016-Jun-20 14:33N 26°06' W 080°07'4 3.9
2016-Jun-20 13:33N 26°05' W 080°03'3 2.6
2016-Jun-20 12:33N 26°08' W 080°05'2 2.2
2016-Jun-20 11:33N 26°05' W 080°04'3 1.4
2016-Jun-20 09:34N 26°06' W 080°07'1 1.3
2016-Jun-20 08:33N 26°04' W 080°07'1 1.0
2016-Jun-20 07:34N 26°05' W 080°07'1 0.3
2016-Jun-20 03:33N 26°06' W 080°05'2 1.4
2016-Jun-20 02:20N 26°06' W 080°07'1 0.8
2016-Jun-20 01:33N 26°06' W 080°07'1 0.6
2016-Jun-19 23:33N 26°06' W 080°06'1 1.2
2016-Jun-19 22:33N 26°05' W 080°07'0 0.5
2016-Jun-19 21:33N 26°04' W 080°07'1 1.0
2016-Jun-19 20:33N 26°05' W 080°07'0 0.5
2016-Jun-19 19:33N 26°06' W 080°07'0 0.3
2016-Jun-19 18:33N 26°06' W 080°07'1 0.1
2016-Jun-19 09:33N 26°06' W 080°07'0 0.2
2016-Jun-19 08:33N 26°05' W 080°07'1 1.5
2016-Jun-19 07:33N 26°06' W 080°06'1 0.2
2016-Jun-19 01:33N 26°06' W 080°07'1 1.4
2016-Jun-19 00:33N 26°06' W 080°06'1 1.4
2016-Jun-18 23:33N 26°06' W 080°07'2 1.6
2016-Jun-18 22:33N 26°06' W 080°05'2 1.9
2016-Jun-18 21:33N 26°04' W 080°07'1 1.2
2016-Jun-18 20:33N 26°06' W 080°07'2 0.2
2016-Jun-18 10:33N 26°06' W 080°05'1 1.1
2016-Jun-18 09:33N 26°05' W 080°04'2 1.9
2016-Jun-18 08:33N 26°06' W 080°06'1 0.8
2016-Jun-18 07:33N 26°05' W 080°07'1 0.5
2016-Jun-18 06:05N 26°06' W 080°07'2 3.1
2016-Jun-18 05:33N 26°06' W 080°06'1 1.2
2016-Jun-18 04:33N 26°06' W 080°07'0 0.4
2016-Jun-18 03:33N 26°05' W 080°07'0 0.2
2016-Jun-18 01:33N 26°06' W 080°07'0 0.1
2016-Jun-17 22:33N 26°06' W 080°07'0 0.1
2016-Jun-17 20:33N 26°05' W 080°07'4 4.2
2016-Jun-17 19:33N 26°05' W 080°03'5 4.6
2016-Jun-17 18:33N 26°06' W 080°07'2 2.4
2016-Jun-17 17:33N 26°06' W 080°05'2 0.3
2016-Jun-17 10:33N 26°05' W 080°07'4 4.1
2016-Jun-17 09:33N 26°05' W 080°02'1 1.2
2016-Jun-17 08:33N 26°06' W 080°04'1 1.1
2016-Jun-17 07:33N 26°05' W 080°05'2 2.2
2016-Jun-17 06:33N 26°04' W 080°07'1 1.2
2016-Jun-17 05:33N 26°06' W 080°07'0 0.1
2016-Jun-17 04:33N 26°05' W 080°07'0 0.3
2016-Jun-17 03:33N 26°06' W 080°07'1 0.9
2016-Jun-17 02:33N 26°06' W 080°06'1 1.1
2016-Jun-17 01:33N 26°06' W 080°07'1 0.3
2016-Jun-16 23:30N 26°06' W 080°07'1 1.4
2016-Jun-16 22:33N 26°05' W 080°07'3 3.4
2016-Jun-16 21:33N 26°06' W 080°03'2 1.9
2016-Jun-16 20:33N 26°06' W 080°05'2 0.2
2016-Jun-16 11:33N 26°06' W 080°07'0 0.4
2016-Jun-16 10:34N 26°06' W 080°07'3 3.0
2016-Jun-16 09:34N 26°06' W 080°04'3 2.8
2016-Jun-16 08:33N 26°05' W 080°07'5 5.3
2016-Jun-16 07:33N 26°07' W 080°01'5 1.6
2016-Jun-16 04:08N 26°06' W 080°07'1 1.6
2016-Jun-16 03:33N 26°05' W 080°07'1 0.1
2016-Jun-15 17:33N 26°06' W 080°06'1 1.3
2016-Jun-15 16:33N 26°06' W 080°07'0 0.1
2016-Jun-15 15:33N 26°06' W 080°07'1 1.3
2016-Jun-15 14:33N 26°06' W 080°06'1 1.1
2016-Jun-15 13:33N 26°06' W 080°07'1 1.5
2016-Jun-15 12:33N 26°04' W 080°07'  

Dump ship's entire track history